sensor_id;sensor_type;location;lat;lon;timestamp;temperature;humidity
36670;DHT22;22662;47.412;9.742;2022-10-31T00:00:56;10.40;99.90
36670;DHT22;22662;47.412;9.742;2022-10-31T00:03:22;10.50;99.90
36670;DHT22;22662;47.412;9.742;2022-10-31T00:05:48;10.50;99.90
36670;DHT22;22662;47.412;9.742;2022-10-31T00:08:14;10.50;99.90
36670;DHT22;22662;47.412;9.742;2022-10-31T00:10:40;10.60;99.90
36670;DHT22;22662;47.412;9.742;2022-10-31T00:13:06;10.50;99.90
36670;DHT22;22662;47.412;9.742;2022-10-31T00:15:36;10.50;99.90
36670;DHT22;22662;47.412;9.742;2022-10-31T00:18:02;10.50;99.90
36670;DHT22;22662;47.412;9.742;2022-10-31T00:20:28;10.60;99.90
36670;DHT22;22662;47.412;9.742;2022-10-31T00:22:57;10.60;99.90
36670;DHT22;22662;47.412;9.742;2022-10-31T00:25:22;10.60;99.90
36670;DHT22;22662;47.412;9.742;2022-10-31T00:27:48;10.50;99.90
36670;DHT22;22662;47.412;9.742;2022-10-31T00:30:14;10.50;99.90
36670;DHT22;22662;47.412;9.742;2022-10-31T00:32:39;10.50;99.90
36670;DHT22;22662;47.412;9.742;2022-10-31T00:35:05;10.50;99.90
36670;DHT22;22662;47.412;9.742;2022-10-31T00:37:30;10.50;99.90
36670;DHT22;22662;47.412;9.742;2022-10-31T00:39:56;10.50;99.90
36670;DHT22;22662;47.412;9.742;2022-10-31T00:42:21;10.60;99.90
36670;DHT22;22662;47.412;9.742;2022-10-31T00:44:47;10.60;99.90
36670;DHT22;22662;47.412;9.742;2022-10-31T00:47:13;10.50;99.90
36670;DHT22;22662;47.412;9.742;2022-10-31T00:49:38;10.50;99.90
36670;DHT22;22662;47.412;9.742;2022-10-31T00:52:04;10.40;99.90
36670;DHT22;22662;47.412;9.742;2022-10-31T00:54:29;10.40;99.90
36670;DHT22;22662;47.412;9.742;2022-10-31T00:56:56;10.30;99.90
36670;DHT22;22662;47.412;9.742;2022-10-31T00:59:22;10.20;99.90
36670;DHT22;22662;47.412;9.742;2022-10-31T01:01:47;10.10;99.90
36670;DHT22;22662;47.412;9.742;2022-10-31T01:04:13;10.10;99.90
36670;DHT22;22662;47.412;9.742;2022-10-31T01:06:39;10.10;99.90
36670;DHT22;22662;47.412;9.742;2022-10-31T01:09:06;10.10;99.90
36670;DHT22;22662;47.412;9.742;2022-10-31T01:11:32;10.10;99.90
36670;DHT22;22662;47.412;9.742;2022-10-31T01:13:57;10.10;99.90
36670;DHT22;22662;47.412;9.742;2022-10-31T01:16:24;10.20;99.90
36670;DHT22;22662;47.412;9.742;2022-10-31T01:18:49;10.10;99.90
36670;DHT22;22662;47.412;9.742;2022-10-31T01:21:19;10.20;99.90
36670;DHT22;22662;47.412;9.742;2022-10-31T01:23:45;10.20;99.90
36670;DHT22;22662;47.412;9.742;2022-10-31T01:26:15;10.20;99.90
36670;DHT22;22662;47.412;9.742;2022-10-31T01:28:45;10.20;99.90
36670;DHT22;22662;47.412;9.742;2022-10-31T01:31:11;10.10;99.90
36670;DHT22;22662;47.412;9.742;2022-10-31T01:33:37;10.10;99.90
36670;DHT22;22662;47.412;9.742;2022-10-31T01:36:13;10.10;99.90
36670;DHT22;22662;47.412;9.742;2022-10-31T01:38:39;10.10;99.90
36670;DHT22;22662;47.412;9.742;2022-10-31T01:41:05;10.00;99.90
36670;DHT22;22662;47.412;9.742;2022-10-31T01:43:47;10.00;99.90
36670;DHT22;22662;47.412;9.742;2022-10-31T01:46:13;10.00;99.90
36670;DHT22;22662;47.412;9.742;2022-10-31T01:48:39;10.00;99.90
36670;DHT22;22662;47.412;9.742;2022-10-31T01:51:06;9.90;99.90
36670;DHT22;22662;47.412;9.742;2022-10-31T01:53:32;9.90;99.90
36670;DHT22;22662;47.412;9.742;2022-10-31T01:55:58;9.90;99.90
36670;DHT22;22662;47.412;9.742;2022-10-31T01:58:24;9.80;99.90
36670;DHT22;22662;47.412;9.742;2022-10-31T02:00:51;9.80;99.90
36670;DHT22;22662;47.412;9.742;2022-10-31T02:03:19;9.80;99.90
36670;DHT22;22662;47.412;9.742;2022-10-31T02:05:45;9.80;99.90
36670;DHT22;22662;47.412;9.742;2022-10-31T02:08:27;9.90;99.90
36670;DHT22;22662;47.412;9.742;2022-10-31T02:10:54;9.80;99.90
36670;DHT22;22662;47.412;9.742;2022-10-31T02:13:20;9.80;99.90
36670;DHT22;22662;47.412;9.742;2022-10-31T02:15:47;9.80;99.90
36670;DHT22;22662;47.412;9.742;2022-10-31T02:18:14;9.80;99.90
36670;DHT22;22662;47.412;9.742;2022-10-31T02:20:42;9.80;99.90
36670;DHT22;22662;47.412;9.742;2022-10-31T02:33:59;9.60;99.90
36670;DHT22;22662;47.412;9.742;2022-10-31T02:38:58;9.70;99.90
36670;DHT22;22662;47.412;9.742;2022-10-31T02:47:15;9.80;99.90
36670;DHT22;22662;47.412;9.742;2022-10-31T02:49:50;9.80;99.90
36670;DHT22;22662;47.412;9.742;2022-10-31T02:52:29;9.80;99.90
36670;DHT22;22662;47.412;9.742;2022-10-31T02:54:55;9.70;99.90
36670;DHT22;22662;47.412;9.742;2022-10-31T02:57:23;9.70;99.90
36670;DHT22;22662;47.412;9.742;2022-10-31T02:59:51;9.70;99.90
36670;DHT22;22662;47.412;9.742;2022-10-31T03:12:29;9.70;99.90
36670;DHT22;22662;47.412;9.742;2022-10-31T03:17:34;9.70;99.90
36670;DHT22;22662;47.412;9.742;2022-10-31T03:20:01;9.80;99.90
36670;DHT22;22662;47.412;9.742;2022-10-31T03:22:29;9.70;99.90
36670;DHT22;22662;47.412;9.742;2022-10-31T03:24:56;9.70;99.90
36670;DHT22;22662;47.412;9.742;2022-10-31T03:27:23;9.70;99.90
36670;DHT22;22662;47.412;9.742;2022-10-31T03:29:50;9.70;99.90
36670;DHT22;22662;47.412;9.742;2022-10-31T03:32:17;9.60;99.90
36670;DHT22;22662;47.412;9.742;2022-10-31T03:34:45;9.50;99.90
36670;DHT22;22662;47.412;9.742;2022-10-31T03:37:12;9.50;99.90
36670;DHT22;22662;47.412;9.742;2022-10-31T03:39:38;9.50;99.90
36670;DHT22;22662;47.412;9.742;2022-10-31T03:42:09;9.50;99.90
36670;DHT22;22662;47.412;9.742;2022-10-31T03:44:36;9.40;99.90
36670;DHT22;22662;47.412;9.742;2022-10-31T03:47:04;9.40;99.90
36670;DHT22;22662;47.412;9.742;2022-10-31T03:49:29;9.30;99.90
36670;DHT22;22662;47.412;9.742;2022-10-31T03:51:58;9.30;99.90
36670;DHT22;22662;47.412;9.742;2022-10-31T03:54:26;9.20;99.90
36670;DHT22;22662;47.412;9.742;2022-10-31T03:56:55;9.20;99.90
36670;DHT22;22662;47.412;9.742;2022-10-31T04:01:48;9.00;99.90
36670;DHT22;22662;47.412;9.742;2022-10-31T04:04:14;9.00;99.90
36670;DHT22;22662;47.412;9.742;2022-10-31T04:06:40;9.00;99.90
36670;DHT22;22662;47.412;9.742;2022-10-31T04:09:07;9.00;99.90
36670;DHT22;22662;47.412;9.742;2022-10-31T04:11:39;9.00;99.90
36670;DHT22;22662;47.412;9.742;2022-10-31T04:14:05;9.00;99.90
36670;DHT22;22662;47.412;9.742;2022-10-31T04:16:31;9.00;99.90
36670;DHT22;22662;47.412;9.742;2022-10-31T04:18:57;9.00;99.90
36670;DHT22;22662;47.412;9.742;2022-10-31T04:21:26;8.90;99.90
36670;DHT22;22662;47.412;9.742;2022-10-31T04:23:52;8.90;99.90
36670;DHT22;22662;47.412;9.742;2022-10-31T04:26:18;8.80;99.90
36670;DHT22;22662;47.412;9.742;2022-10-31T04:28:43;8.80;99.90
36670;DHT22;22662;47.412;9.742;2022-10-31T04:31:10;8.80;99.90
36670;DHT22;22662;47.412;9.742;2022-10-31T04:33:36;8.70;99.90
36670;DHT22;22662;47.412;9.742;2022-10-31T04:36:01;8.70;99.90
36670;DHT22;22662;47.412;9.742;2022-10-31T04:38:27;8.70;99.90
36670;DHT22;22662;47.412;9.742;2022-10-31T04:40:52;8.70;99.90
36670;DHT22;22662;47.412;9.742;2022-10-31T04:43:18;8.70;99.90
36670;DHT22;22662;47.412;9.742;2022-10-31T04:45:44;8.70;99.90
36670;DHT22;22662;47.412;9.742;2022-10-31T04:48:09;8.60;99.90
36670;DHT22;22662;47.412;9.742;2022-10-31T04:50:35;8.60;99.90
36670;DHT22;22662;47.412;9.742;2022-10-31T04:53:00;8.60;99.90
36670;DHT22;22662;47.412;9.742;2022-10-31T04:55:26;8.60;99.90
36670;DHT22;22662;47.412;9.742;2022-10-31T04:57:51;8.70;99.90
36670;DHT22;22662;47.412;9.742;2022-10-31T05:00:18;8.50;99.90
36670;DHT22;22662;47.412;9.742;2022-10-31T05:02:45;8.50;99.90
36670;DHT22;22662;47.412;9.742;2022-10-31T05:05:11;8.50;99.90
36670;DHT22;22662;47.412;9.742;2022-10-31T05:07:40;8.40;99.90
36670;DHT22;22662;47.412;9.742;2022-10-31T05:10:07;8.40;99.90
36670;DHT22;22662;47.412;9.742;2022-10-31T05:12:35;8.40;99.90
36670;DHT22;22662;47.412;9.742;2022-10-31T05:15:00;8.40;99.90
36670;DHT22;22662;47.412;9.742;2022-10-31T05:17:26;8.40;99.90
36670;DHT22;22662;47.412;9.742;2022-10-31T05:19:51;8.30;99.90
36670;DHT22;22662;47.412;9.742;2022-10-31T05:22:17;8.20;99.90
36670;DHT22;22662;47.412;9.742;2022-10-31T05:24:42;8.20;99.90
36670;DHT22;22662;47.412;9.742;2022-10-31T05:27:08;8.20;99.90
36670;DHT22;22662;47.412;9.742;2022-10-31T05:29:33;8.30;99.90
36670;DHT22;22662;47.412;9.742;2022-10-31T05:31:59;8.20;99.90
36670;DHT22;22662;47.412;9.742;2022-10-31T05:34:25;8.20;99.90
36670;DHT22;22662;47.412;9.742;2022-10-31T05:36:50;8.20;99.90
36670;DHT22;22662;47.412;9.742;2022-10-31T05:39:16;8.10;99.90
36670;DHT22;22662;47.412;9.742;2022-10-31T05:41:41;8.20;99.90
36670;DHT22;22662;47.412;9.742;2022-10-31T05:44:07;8.20;99.90
36670;DHT22;22662;47.412;9.742;2022-10-31T05:46:33;8.30;99.90
36670;DHT22;22662;47.412;9.742;2022-10-31T05:48:58;8.30;99.90
36670;DHT22;22662;47.412;9.742;2022-10-31T05:51:24;8.30;99.90
36670;DHT22;22662;47.412;9.742;2022-10-31T05:53:49;8.30;99.90
36670;DHT22;22662;47.412;9.742;2022-10-31T05:56:15;8.30;99.90
36670;DHT22;22662;47.412;9.742;2022-10-31T05:58:41;8.30;99.90
36670;DHT22;22662;47.412;9.742;2022-10-31T06:01:06;8.30;99.90
36670;DHT22;22662;47.412;9.742;2022-10-31T06:03:32;8.30;99.90
36670;DHT22;22662;47.412;9.742;2022-10-31T06:05:57;8.20;99.90
36670;DHT22;22662;47.412;9.742;2022-10-31T06:08:23;8.20;99.90
36670;DHT22;22662;47.412;9.742;2022-10-31T06:10:49;8.40;99.90
36670;DHT22;22662;47.412;9.742;2022-10-31T06:13:14;8.40;99.90
36670;DHT22;22662;47.412;9.742;2022-10-31T06:15:41;8.40;99.90
36670;DHT22;22662;47.412;9.742;2022-10-31T06:18:06;8.30;99.90
36670;DHT22;22662;47.412;9.742;2022-10-31T06:20:33;8.30;99.90
36670;DHT22;22662;47.412;9.742;2022-10-31T06:22:59;8.30;99.90
36670;DHT22;22662;47.412;9.742;2022-10-31T06:25:24;8.40;99.90
36670;DHT22;22662;47.412;9.742;2022-10-31T06:27:50;8.50;99.90
36670;DHT22;22662;47.412;9.742;2022-10-31T06:30:16;8.50;99.90
36670;DHT22;22662;47.412;9.742;2022-10-31T06:32:41;8.60;99.90
36670;DHT22;22662;47.412;9.742;2022-10-31T06:35:07;8.70;99.90
36670;DHT22;22662;47.412;9.742;2022-10-31T06:37:32;8.70;99.90
36670;DHT22;22662;47.412;9.742;2022-10-31T06:39:58;8.70;99.90
36670;DHT22;22662;47.412;9.742;2022-10-31T06:42:23;8.70;99.90
36670;DHT22;22662;47.412;9.742;2022-10-31T06:44:49;8.80;99.90
36670;DHT22;22662;47.412;9.742;2022-10-31T06:47:15;8.80;99.90
36670;DHT22;22662;47.412;9.742;2022-10-31T06:49:40;8.80;99.90
36670;DHT22;22662;47.412;9.742;2022-10-31T06:52:06;8.80;99.90
36670;DHT22;22662;47.412;9.742;2022-10-31T06:54:31;8.80;99.90
36670;DHT22;22662;47.412;9.742;2022-10-31T06:56:57;8.70;99.90
36670;DHT22;22662;47.412;9.742;2022-10-31T06:59:23;8.50;99.90
36670;DHT22;22662;47.412;9.742;2022-10-31T07:01:49;8.40;99.90
36670;DHT22;22662;47.412;9.742;2022-10-31T07:04:15;8.50;99.90
36670;DHT22;22662;47.412;9.742;2022-10-31T07:06:40;8.50;99.90
36670;DHT22;22662;47.412;9.742;2022-10-31T07:09:06;8.50;99.90
36670;DHT22;22662;47.412;9.742;2022-10-31T07:11:32;8.70;99.90
36670;DHT22;22662;47.412;9.742;2022-10-31T07:13:57;8.70;99.90
36670;DHT22;22662;47.412;9.742;2022-10-31T07:16:23;8.90;99.90
36670;DHT22;22662;47.412;9.742;2022-10-31T07:18:48;8.90;99.90
36670;DHT22;22662;47.412;9.742;2022-10-31T07:21:15;9.00;99.90
36670;DHT22;22662;47.412;9.742;2022-10-31T07:23:40;9.00;99.90
36670;DHT22;22662;47.412;9.742;2022-10-31T07:26:07;9.00;99.90
36670;DHT22;22662;47.412;9.742;2022-10-31T07:28:33;9.10;99.90
36670;DHT22;22662;47.412;9.742;2022-10-31T07:30:58;9.20;99.90
36670;DHT22;22662;47.412;9.742;2022-10-31T07:33:24;9.20;99.90
36670;DHT22;22662;47.412;9.742;2022-10-31T07:35:51;9.30;99.90
36670;DHT22;22662;47.412;9.742;2022-10-31T07:38:17;9.30;99.90
36670;DHT22;22662;47.412;9.742;2022-10-31T07:40:42;9.40;99.90
36670;DHT22;22662;47.412;9.742;2022-10-31T07:43:08;9.50;99.90
36670;DHT22;22662;47.412;9.742;2022-10-31T07:45:35;9.50;99.90
36670;DHT22;22662;47.412;9.742;2022-10-31T07:48:01;9.70;99.90
36670;DHT22;22662;47.412;9.742;2022-10-31T07:50:28;9.70;99.90
36670;DHT22;22662;47.412;9.742;2022-10-31T07:53:00;9.80;99.90
36670;DHT22;22662;47.412;9.742;2022-10-31T07:55:27;10.10;99.90
36670;DHT22;22662;47.412;9.742;2022-10-31T07:58:00;10.20;99.90
36670;DHT22;22662;47.412;9.742;2022-10-31T08:00:26;10.20;99.90
36670;DHT22;22662;47.412;9.742;2022-10-31T08:03:01;10.30;99.90
36670;DHT22;22662;47.412;9.742;2022-10-31T08:05:28;10.30;99.90
36670;DHT22;22662;47.412;9.742;2022-10-31T08:07:53;10.40;99.90
36670;DHT22;22662;47.412;9.742;2022-10-31T08:10:19;10.50;99.90
36670;DHT22;22662;47.412;9.742;2022-10-31T08:12:45;10.40;99.90
36670;DHT22;22662;47.412;9.742;2022-10-31T08:15:11;10.50;99.90
36670;DHT22;22662;47.412;9.742;2022-10-31T08:17:37;10.70;99.90
36670;DHT22;22662;47.412;9.742;2022-10-31T08:20:06;10.80;99.90
36670;DHT22;22662;47.412;9.742;2022-10-31T08:22:31;10.90;99.90
36670;DHT22;22662;47.412;9.742;2022-10-31T08:24:57;10.90;99.90
36670;DHT22;22662;47.412;9.742;2022-10-31T08:27:22;10.90;99.90
36670;DHT22;22662;47.412;9.742;2022-10-31T08:29:48;10.90;99.90
36670;DHT22;22662;47.412;9.742;2022-10-31T08:32:14;11.10;99.90
36670;DHT22;22662;47.412;9.742;2022-10-31T08:34:39;11.20;99.90
36670;DHT22;22662;47.412;9.742;2022-10-31T08:37:05;11.10;99.90
36670;DHT22;22662;47.412;9.742;2022-10-31T08:39:30;11.10;99.90
36670;DHT22;22662;47.412;9.742;2022-10-31T08:41:56;11.20;99.90
36670;DHT22;22662;47.412;9.742;2022-10-31T08:44:21;11.10;99.90
36670;DHT22;22662;47.412;9.742;2022-10-31T08:46:47;11.10;99.90
36670;DHT22;22662;47.412;9.742;2022-10-31T08:49:12;11.10;99.90
36670;DHT22;22662;47.412;9.742;2022-10-31T08:51:38;10.90;99.90
36670;DHT22;22662;47.412;9.742;2022-10-31T08:54:04;10.80;99.90
36670;DHT22;22662;47.412;9.742;2022-10-31T08:56:29;10.70;99.90
36670;DHT22;22662;47.412;9.742;2022-10-31T08:58:55;10.50;99.90
36670;DHT22;22662;47.412;9.742;2022-10-31T09:01:20;10.60;99.90
36670;DHT22;22662;47.412;9.742;2022-10-31T09:03:46;10.80;99.90
36670;DHT22;22662;47.412;9.742;2022-10-31T09:06:11;10.80;99.90
36670;DHT22;22662;47.412;9.742;2022-10-31T09:08:37;10.90;99.90
36670;DHT22;22662;47.412;9.742;2022-10-31T09:11:03;10.80;99.90
36670;DHT22;22662;47.412;9.742;2022-10-31T09:13:29;10.90;99.90
36670;DHT22;22662;47.412;9.742;2022-10-31T09:15:55;10.90;99.90
36670;DHT22;22662;47.412;9.742;2022-10-31T09:18:21;10.90;99.90
36670;DHT22;22662;47.412;9.742;2022-10-31T09:20:48;10.90;99.90
36670;DHT22;22662;47.412;9.742;2022-10-31T09:23:17;11.00;99.90
36670;DHT22;22662;47.412;9.742;2022-10-31T09:25:44;10.90;99.90
36670;DHT22;22662;47.412;9.742;2022-10-31T09:28:11;10.90;99.90
36670;DHT22;22662;47.412;9.742;2022-10-31T09:30:37;11.00;99.90
36670;DHT22;22662;47.412;9.742;2022-10-31T09:33:03;11.00;99.90
36670;DHT22;22662;47.412;9.742;2022-10-31T09:35:30;11.30;99.90
36670;DHT22;22662;47.412;9.742;2022-10-31T09:37:59;11.30;99.90
36670;DHT22;22662;47.412;9.742;2022-10-31T09:43:21;11.80;99.90
36670;DHT22;22662;47.412;9.742;2022-10-31T09:48:21;11.10;99.90
36670;DHT22;22662;47.412;9.742;2022-10-31T09:50:53;11.30;99.90
36670;DHT22;22662;47.412;9.742;2022-10-31T09:53:23;11.40;99.90
36670;DHT22;22662;47.412;9.742;2022-10-31T09:55:50;11.60;99.90
36670;DHT22;22662;47.412;9.742;2022-10-31T09:58:18;11.90;99.90
36670;DHT22;22662;47.412;9.742;2022-10-31T10:00:45;12.10;99.90
36670;DHT22;22662;47.412;9.742;2022-10-31T10:08:32;12.00;99.90
36670;DHT22;22662;47.412;9.742;2022-10-31T10:26:37;11.90;99.90
36670;DHT22;22662;47.412;9.742;2022-10-31T10:31:39;12.10;99.90
36670;DHT22;22662;47.412;9.742;2022-10-31T10:36:42;11.80;99.90
36670;DHT22;22662;47.412;9.742;2022-10-31T10:39:11;11.80;99.90
36670;DHT22;22662;47.412;9.742;2022-10-31T10:41:39;11.90;99.90
36670;DHT22;22662;47.412;9.742;2022-10-31T10:44:10;12.00;99.90
36670;DHT22;22662;47.412;9.742;2022-10-31T10:46:49;12.30;99.90
36670;DHT22;22662;47.412;9.742;2022-10-31T10:52:05;12.70;99.90
36670;DHT22;22662;47.412;9.742;2022-10-31T10:57:21;12.60;99.90
36670;DHT22;22662;47.412;9.742;2022-10-31T10:59:47;12.40;99.90
36670;DHT22;22662;47.412;9.742;2022-10-31T11:02:17;12.50;99.90
36670;DHT22;22662;47.412;9.742;2022-10-31T11:04:43;12.50;99.90
36670;DHT22;22662;47.412;9.742;2022-10-31T11:07:11;12.60;99.90
36670;DHT22;22662;47.412;9.742;2022-10-31T11:09:37;12.80;99.90
36670;DHT22;22662;47.412;9.742;2022-10-31T11:17:34;13.00;99.90
36670;DHT22;22662;47.412;9.742;2022-10-31T11:22:30;13.10;99.90
36670;DHT22;22662;47.412;9.742;2022-10-31T11:24:55;13.40;99.90
36670;DHT22;22662;47.412;9.742;2022-10-31T11:27:22;13.50;99.90
36670;DHT22;22662;47.412;9.742;2022-10-31T11:29:49;13.70;99.90
36670;DHT22;22662;47.412;9.742;2022-10-31T11:32:21;13.90;99.90
36670;DHT22;22662;47.412;9.742;2022-10-31T11:34:52;14.00;99.90
36670;DHT22;22662;47.412;9.742;2022-10-31T11:37:26;14.00;99.90
36670;DHT22;22662;47.412;9.742;2022-10-31T11:39:53;14.20;99.90
36670;DHT22;22662;47.412;9.742;2022-10-31T11:42:23;14.00;99.90
36670;DHT22;22662;47.412;9.742;2022-10-31T11:44:49;14.10;99.90
36670;DHT22;22662;47.412;9.742;2022-10-31T11:47:16;13.90;99.90
36670;DHT22;22662;47.412;9.742;2022-10-31T11:49:42;13.90;99.90
36670;DHT22;22662;47.412;9.742;2022-10-31T11:52:30;13.90;99.90
36670;DHT22;22662;47.412;9.742;2022-10-31T11:54:55;14.00;99.90
36670;DHT22;22662;47.412;9.742;2022-10-31T11:57:22;13.90;99.90
36670;DHT22;22662;47.412;9.742;2022-10-31T11:59:51;13.90;99.90
36670;DHT22;22662;47.412;9.742;2022-10-31T12:02:18;13.90;99.90
36670;DHT22;22662;47.412;9.742;2022-10-31T12:04:45;13.80;99.90
36670;DHT22;22662;47.412;9.742;2022-10-31T12:07:11;13.90;99.90
36670;DHT22;22662;47.412;9.742;2022-10-31T12:09:37;13.90;99.90
36670;DHT22;22662;47.412;9.742;2022-10-31T12:12:11;14.20;99.90
36670;DHT22;22662;47.412;9.742;2022-10-31T12:17:24;14.30;99.90
36670;DHT22;22662;47.412;9.742;2022-10-31T12:27:49;14.50;99.90
36670;DHT22;22662;47.412;9.742;2022-10-31T12:30:20;14.30;99.90
36670;DHT22;22662;47.412;9.742;2022-10-31T12:45:13;14.20;99.90
36670;DHT22;22662;47.412;9.742;2022-10-31T12:55:51;14.10;99.90
36670;DHT22;22662;47.412;9.742;2022-10-31T12:58:24;14.20;99.90
36670;DHT22;22662;47.412;9.742;2022-10-31T13:00:54;14.40;99.90
36670;DHT22;22662;47.412;9.742;2022-10-31T13:03:26;14.70;99.90
36670;DHT22;22662;47.412;9.742;2022-10-31T13:05:55;14.80;99.90
36670;DHT22;22662;47.412;9.742;2022-10-31T13:08:24;14.80;99.90
36670;DHT22;22662;47.412;9.742;2022-10-31T13:10:54;15.10;99.90
36670;DHT22;22662;47.412;9.742;2022-10-31T13:13:23;15.40;99.90
36670;DHT22;22662;47.412;9.742;2022-10-31T13:15:55;15.50;99.90
36670;DHT22;22662;47.412;9.742;2022-10-31T13:18:29;15.50;99.90
36670;DHT22;22662;47.412;9.742;2022-10-31T13:20:57;15.70;99.90
36670;DHT22;22662;47.412;9.742;2022-10-31T13:23:28;15.80;99.90
36670;DHT22;22662;47.412;9.742;2022-10-31T13:25:55;15.90;99.90
36670;DHT22;22662;47.412;9.742;2022-10-31T13:30:50;15.90;99.90
36670;DHT22;22662;47.412;9.742;2022-10-31T13:33:18;16.00;99.90
36670;DHT22;22662;47.412;9.742;2022-10-31T13:40:58;15.90;99.90
36670;DHT22;22662;47.412;9.742;2022-10-31T13:45:54;15.50;99.90
36670;DHT22;22662;47.412;9.742;2022-10-31T13:48:36;15.40;99.90
36670;DHT22;22662;47.412;9.742;2022-10-31T13:51:04;15.20;99.90
36670;DHT22;22662;47.412;9.742;2022-10-31T13:53:40;15.10;99.90
36670;DHT22;22662;47.412;9.742;2022-10-31T13:58:33;14.90;99.90
36670;DHT22;22662;47.412;9.742;2022-10-31T14:01:13;14.80;99.90
36670;DHT22;22662;47.412;9.742;2022-10-31T14:03:41;14.80;99.90
36670;DHT22;22662;47.412;9.742;2022-10-31T14:06:08;14.80;99.90
36670;DHT22;22662;47.412;9.742;2022-10-31T14:08:36;15.00;99.90
36670;DHT22;22662;47.412;9.742;2022-10-31T14:11:03;15.10;99.90
36670;DHT22;22662;47.412;9.742;2022-10-31T14:13:35;15.20;99.90
36670;DHT22;22662;47.412;9.742;2022-10-31T14:16:28;15.30;99.90
36670;DHT22;22662;47.412;9.742;2022-10-31T14:19:00;15.50;99.90
36670;DHT22;22662;47.412;9.742;2022-10-31T14:21:42;15.50;99.90
36670;DHT22;22662;47.412;9.742;2022-10-31T14:24:16;15.40;99.90
36670;DHT22;22662;47.412;9.742;2022-10-31T14:29:21;15.40;99.90
36670;DHT22;22662;47.412;9.742;2022-10-31T14:31:58;15.50;99.90
36670;DHT22;22662;47.412;9.742;2022-10-31T14:34:38;15.50;99.90
36670;DHT22;22662;47.412;9.742;2022-10-31T14:52:20;15.00;99.90
36670;DHT22;22662;47.412;9.742;2022-10-31T14:54:50;15.00;99.90
36670;DHT22;22662;47.412;9.742;2022-10-31T14:57:26;15.00;99.90
36670;DHT22;22662;47.412;9.742;2022-10-31T14:59:55;14.90;99.90
36670;DHT22;22662;47.412;9.742;2022-10-31T15:02:33;14.90;99.90
36670;DHT22;22662;47.412;9.742;2022-10-31T15:05:06;14.90;99.90
36670;DHT22;22662;47.412;9.742;2022-10-31T15:07:32;14.80;99.90
36670;DHT22;22662;47.412;9.742;2022-10-31T15:10:00;14.80;99.90
36670;DHT22;22662;47.412;9.742;2022-10-31T15:14:52;14.80;99.90
36670;DHT22;22662;47.412;9.742;2022-10-31T15:17:18;14.70;99.90
36670;DHT22;22662;47.412;9.742;2022-10-31T15:19:44;14.60;99.90
36670;DHT22;22662;47.412;9.742;2022-10-31T15:22:12;14.50;99.90
36670;DHT22;22662;47.412;9.742;2022-10-31T15:24:39;14.40;99.90
36670;DHT22;22662;47.412;9.742;2022-10-31T15:27:05;14.30;99.90
36670;DHT22;22662;47.412;9.742;2022-10-31T15:29:30;14.20;99.90
36670;DHT22;22662;47.412;9.742;2022-10-31T15:31:57;14.10;99.90
36670;DHT22;22662;47.412;9.742;2022-10-31T15:36:51;14.00;99.90
36670;DHT22;22662;47.412;9.742;2022-10-31T15:39:17;14.00;99.90
36670;DHT22;22662;47.412;9.742;2022-10-31T15:41:53;13.90;99.90
36670;DHT22;22662;47.412;9.742;2022-10-31T15:44:21;13.80;99.90
36670;DHT22;22662;47.412;9.742;2022-10-31T15:47:01;13.70;99.90
36670;DHT22;22662;47.412;9.742;2022-10-31T15:52:02;13.50;99.90
36670;DHT22;22662;47.412;9.742;2022-10-31T15:54:29;13.40;99.90
36670;DHT22;22662;47.412;9.742;2022-10-31T15:56:55;13.30;99.90
36670;DHT22;22662;47.412;9.742;2022-10-31T15:59:22;13.20;99.90
36670;DHT22;22662;47.412;9.742;2022-10-31T16:02:10;13.10;99.90
36670;DHT22;22662;47.412;9.742;2022-10-31T16:04:34;13.10;99.90
36670;DHT22;22662;47.412;9.742;2022-10-31T16:07:00;13.00;99.90
36670;DHT22;22662;47.412;9.742;2022-10-31T16:09:26;13.00;99.90
36670;DHT22;22662;47.412;9.742;2022-10-31T16:11:52;12.80;99.90
36670;DHT22;22662;47.412;9.742;2022-10-31T16:14:18;12.70;99.90
36670;DHT22;22662;47.412;9.742;2022-10-31T16:16:47;12.60;99.90
36670;DHT22;22662;47.412;9.742;2022-10-31T16:21:46;12.50;99.90
36670;DHT22;22662;47.412;9.742;2022-10-31T16:24:26;12.40;99.90
36670;DHT22;22662;47.412;9.742;2022-10-31T16:26:54;12.40;99.90
36670;DHT22;22662;47.412;9.742;2022-10-31T16:29:27;12.40;99.90
36670;DHT22;22662;47.412;9.742;2022-10-31T16:31:53;12.30;99.90
36670;DHT22;22662;47.412;9.742;2022-10-31T16:34:20;12.20;99.90
36670;DHT22;22662;47.412;9.742;2022-10-31T16:36:46;12.10;99.90
36670;DHT22;22662;47.412;9.742;2022-10-31T16:39:12;12.00;99.90
36670;DHT22;22662;47.412;9.742;2022-10-31T16:41:40;11.90;99.90
36670;DHT22;22662;47.412;9.742;2022-10-31T16:44:14;11.90;99.90
36670;DHT22;22662;47.412;9.742;2022-10-31T16:46:40;11.80;99.90
36670;DHT22;22662;47.412;9.742;2022-10-31T16:49:08;11.80;99.90
36670;DHT22;22662;47.412;9.742;2022-10-31T16:51:33;11.70;99.90
36670;DHT22;22662;47.412;9.742;2022-10-31T16:53:59;11.70;99.90
36670;DHT22;22662;47.412;9.742;2022-10-31T16:56:28;11.70;99.90
36670;DHT22;22662;47.412;9.742;2022-10-31T16:58:55;11.70;99.90
36670;DHT22;22662;47.412;9.742;2022-10-31T17:01:21;11.70;99.90
36670;DHT22;22662;47.412;9.742;2022-10-31T17:03:47;11.60;99.90
36670;DHT22;22662;47.412;9.742;2022-10-31T17:06:13;11.50;99.90
36670;DHT22;22662;47.412;9.742;2022-10-31T17:08:39;11.50;99.90
36670;DHT22;22662;47.412;9.742;2022-10-31T17:11:04;11.50;99.90
36670;DHT22;22662;47.412;9.742;2022-10-31T17:13:30;11.50;99.90
36670;DHT22;22662;47.412;9.742;2022-10-31T17:15:57;11.40;99.90
36670;DHT22;22662;47.412;9.742;2022-10-31T17:18:23;11.40;99.90
36670;DHT22;22662;47.412;9.742;2022-10-31T17:20:49;11.40;99.90
36670;DHT22;22662;47.412;9.742;2022-10-31T17:23:16;11.30;99.90
36670;DHT22;22662;47.412;9.742;2022-10-31T17:25:41;11.20;99.90
36670;DHT22;22662;47.412;9.742;2022-10-31T17:28:12;11.20;99.90
36670;DHT22;22662;47.412;9.742;2022-10-31T17:30:38;11.20;99.90
36670;DHT22;22662;47.412;9.742;2022-10-31T17:33:04;11.10;99.90
36670;DHT22;22662;47.412;9.742;2022-10-31T17:35:29;11.10;99.90
36670;DHT22;22662;47.412;9.742;2022-10-31T17:37:55;11.10;99.90
36670;DHT22;22662;47.412;9.742;2022-10-31T17:40:21;11.20;99.90
36670;DHT22;22662;47.412;9.742;2022-10-31T17:42:54;11.10;99.90
36670;DHT22;22662;47.412;9.742;2022-10-31T17:45:21;11.10;99.90
36670;DHT22;22662;47.412;9.742;2022-10-31T17:47:47;11.10;99.90
36670;DHT22;22662;47.412;9.742;2022-10-31T17:50:14;11.20;99.90
36670;DHT22;22662;47.412;9.742;2022-10-31T17:52:39;11.20;99.90
36670;DHT22;22662;47.412;9.742;2022-10-31T17:55:05;11.20;99.90
36670;DHT22;22662;47.412;9.742;2022-10-31T17:57:31;11.10;99.90
36670;DHT22;22662;47.412;9.742;2022-10-31T17:59:57;11.10;99.90
36670;DHT22;22662;47.412;9.742;2022-10-31T18:02:23;11.00;99.90
36670;DHT22;22662;47.412;9.742;2022-10-31T18:04:49;11.00;99.90
36670;DHT22;22662;47.412;9.742;2022-10-31T18:07:14;11.10;99.90